SII weather

Sidi Ifni Xx Airport
Sidi Ifni, Aït Baha Province, Morocco

Public forecast

Using degrees Celsius for public forecast. Weather courtesy of forecast.io.

METAR (pilot weather report)

Report is more than 6 hours old.

Closest report is Inezgane Airport, 69.5 nm (128.7 km) NNE. Retrieved 2019/05/22 10:25 UTC (1 day ago):

GMAA 221025Z 27008KT 5000 SCT010 SCT016 21/16 Q1012 B2+3

TAF (pilot weather forecast)

Forecast is more than 12 hours old.

Retrieved 2017/11/16 18:00 UTC (2 years ago):

TAF GMMF 161700Z 1618/1724 02008KT CAVOK BECMG 1620/1624 10004KT 8000 NSC PROB30 TEMPO 1702/1707 3000 BR BKN010